sensor_id;sensor_type;location;lat;lon;timestamp;P1;durP1;ratioP1;P2;durP2;ratioP2
27576;SDS011;15011;53.380;10.034;2022-11-14T00:02:26;52.10;;;31.52;;
27576;SDS011;15011;53.380;10.034;2022-11-14T00:07:30;52.05;;;31.55;;
27576;SDS011;15011;53.380;10.034;2022-11-14T00:12:31;57.70;;;33.05;;
27576;SDS011;15011;53.380;10.034;2022-11-14T00:17:31;58.47;;;33.17;;
27576;SDS011;15011;53.380;10.034;2022-11-14T00:22:32;57.38;;;33.70;;
27576;SDS011;15011;53.380;10.034;2022-11-14T00:27:32;52.50;;;29.48;;
27576;SDS011;15011;53.380;10.034;2022-11-14T00:32:33;55.05;;;30.88;;
27576;SDS011;15011;53.380;10.034;2022-11-14T00:37:33;50.88;;;29.77;;
27576;SDS011;15011;53.380;10.034;2022-11-14T00:42:34;51.15;;;30.92;;
27576;SDS011;15011;53.380;10.034;2022-11-14T00:47:34;53.30;;;30.58;;
27576;SDS011;15011;53.380;10.034;2022-11-14T00:52:35;51.78;;;29.88;;
27576;SDS011;15011;53.380;10.034;2022-11-14T00:57:35;56.60;;;31.33;;
27576;SDS011;15011;53.380;10.034;2022-11-14T01:02:36;55.97;;;30.98;;
27576;SDS011;15011;53.380;10.034;2022-11-14T01:07:36;53.15;;;30.40;;
27576;SDS011;15011;53.380;10.034;2022-11-14T01:12:37;54.58;;;31.08;;
27576;SDS011;15011;53.380;10.034;2022-11-14T01:17:37;52.17;;;29.35;;
27576;SDS011;15011;53.380;10.034;2022-11-14T01:22:38;54.42;;;31.20;;
27576;SDS011;15011;53.380;10.034;2022-11-14T01:27:38;54.75;;;31.98;;
27576;SDS011;15011;53.380;10.034;2022-11-14T01:32:39;54.90;;;32.58;;
27576;SDS011;15011;53.380;10.034;2022-11-14T01:37:39;56.78;;;30.98;;
27576;SDS011;15011;53.380;10.034;2022-11-14T01:42:40;55.50;;;30.08;;
27576;SDS011;15011;53.380;10.034;2022-11-14T01:47:40;53.78;;;31.58;;
27576;SDS011;15011;53.380;10.034;2022-11-14T01:52:41;55.90;;;31.73;;
27576;SDS011;15011;53.380;10.034;2022-11-14T01:57:43;54.08;;;31.45;;
27576;SDS011;15011;53.380;10.034;2022-11-14T02:02:45;54.60;;;31.55;;
27576;SDS011;15011;53.380;10.034;2022-11-14T02:07:46;54.95;;;31.45;;
27576;SDS011;15011;53.380;10.034;2022-11-14T02:12:46;53.88;;;30.92;;
27576;SDS011;15011;53.380;10.034;2022-11-14T02:17:48;54.17;;;30.65;;
27576;SDS011;15011;53.380;10.034;2022-11-14T02:22:48;55.92;;;31.77;;
27576;SDS011;15011;53.380;10.034;2022-11-14T02:27:48;56.00;;;31.52;;
27576;SDS011;15011;53.380;10.034;2022-11-14T02:32:49;60.13;;;32.55;;
27576;SDS011;15011;53.380;10.034;2022-11-14T02:37:50;56.28;;;31.13;;
27576;SDS011;15011;53.380;10.034;2022-11-14T02:42:50;56.42;;;30.77;;
27576;SDS011;15011;53.380;10.034;2022-11-14T02:47:51;59.13;;;31.58;;
27576;SDS011;15011;53.380;10.034;2022-11-14T02:52:51;55.35;;;30.60;;
27576;SDS011;15011;53.380;10.034;2022-11-14T02:57:53;59.97;;;31.50;;
27576;SDS011;15011;53.380;10.034;2022-11-14T03:02:53;57.53;;;31.50;;
27576;SDS011;15011;53.380;10.034;2022-11-14T03:07:54;59.95;;;30.02;;
27576;SDS011;15011;53.380;10.034;2022-11-14T03:12:56;57.65;;;31.88;;
27576;SDS011;15011;53.380;10.034;2022-11-14T03:17:57;56.47;;;31.05;;
27576;SDS011;15011;53.380;10.034;2022-11-14T03:22:57;59.47;;;33.15;;
27576;SDS011;15011;53.380;10.034;2022-11-14T03:27:58;61.80;;;33.58;;
27576;SDS011;15011;53.380;10.034;2022-11-14T03:32:58;68.28;;;34.92;;
27576;SDS011;15011;53.380;10.034;2022-11-14T03:37:58;60.45;;;32.97;;
27576;SDS011;15011;53.380;10.034;2022-11-14T03:42:59;60.08;;;33.92;;
27576;SDS011;15011;53.380;10.034;2022-11-14T03:47:59;65.28;;;34.35;;
27576;SDS011;15011;53.380;10.034;2022-11-14T03:53:00;64.72;;;32.95;;
27576;SDS011;15011;53.380;10.034;2022-11-14T03:58:00;63.42;;;34.13;;
27576;SDS011;15011;53.380;10.034;2022-11-14T04:03:01;65.93;;;34.92;;
27576;SDS011;15011;53.380;10.034;2022-11-14T04:08:04;64.63;;;34.97;;
27576;SDS011;15011;53.380;10.034;2022-11-14T04:13:06;65.45;;;34.20;;
27576;SDS011;15011;53.380;10.034;2022-11-14T04:18:06;67.43;;;34.40;;
27576;SDS011;15011;53.380;10.034;2022-11-14T04:23:07;67.38;;;35.72;;
27576;SDS011;15011;53.380;10.034;2022-11-14T04:28:07;64.13;;;33.97;;
27576;SDS011;15011;53.380;10.034;2022-11-14T04:33:08;61.88;;;34.30;;
27576;SDS011;15011;53.380;10.034;2022-11-14T04:38:08;58.47;;;33.97;;
27576;SDS011;15011;53.380;10.034;2022-11-14T04:43:09;57.88;;;33.08;;
27576;SDS011;15011;53.380;10.034;2022-11-14T04:48:09;61.08;;;33.28;;
27576;SDS011;15011;53.380;10.034;2022-11-14T04:53:10;61.83;;;33.75;;
27576;SDS011;15011;53.380;10.034;2022-11-14T04:58:10;60.30;;;33.00;;
27576;SDS011;15011;53.380;10.034;2022-11-14T05:03:11;63.83;;;34.25;;
27576;SDS011;15011;53.380;10.034;2022-11-14T05:08:11;61.92;;;34.40;;
27576;SDS011;15011;53.380;10.034;2022-11-14T05:13:12;66.90;;;35.88;;
27576;SDS011;15011;53.380;10.034;2022-11-14T05:18:12;63.42;;;35.00;;
27576;SDS011;15011;53.380;10.034;2022-11-14T05:23:22;66.72;;;34.95;;
27576;SDS011;15011;53.380;10.034;2022-11-14T05:28:23;61.50;;;33.33;;
27576;SDS011;15011;53.380;10.034;2022-11-14T05:33:23;67.30;;;35.60;;
27576;SDS011;15011;53.380;10.034;2022-11-14T05:38:23;60.50;;;34.08;;
27576;SDS011;15011;53.380;10.034;2022-11-14T05:43:24;69.25;;;34.72;;
27576;SDS011;15011;53.380;10.034;2022-11-14T05:48:25;66.88;;;35.90;;
27576;SDS011;15011;53.380;10.034;2022-11-14T05:53:26;64.13;;;34.17;;
27576;SDS011;15011;53.380;10.034;2022-11-14T05:58:27;68.83;;;36.13;;
27576;SDS011;15011;53.380;10.034;2022-11-14T06:03:34;69.53;;;37.15;;
27576;SDS011;15011;53.380;10.034;2022-11-14T06:08:37;67.78;;;36.13;;
27576;SDS011;15011;53.380;10.034;2022-11-14T06:13:37;65.38;;;34.53;;
27576;SDS011;15011;53.380;10.034;2022-11-14T06:18:38;75.55;;;38.28;;
27576;SDS011;15011;53.380;10.034;2022-11-14T06:23:38;72.35;;;36.65;;
27576;SDS011;15011;53.380;10.034;2022-11-14T06:28:39;73.47;;;37.67;;
27576;SDS011;15011;53.380;10.034;2022-11-14T06:33:39;73.72;;;38.92;;
27576;SDS011;15011;53.380;10.034;2022-11-14T06:38:40;71.30;;;36.53;;
27576;SDS011;15011;53.380;10.034;2022-11-14T06:43:42;72.72;;;38.28;;
27576;SDS011;15011;53.380;10.034;2022-11-14T06:53:44;72.18;;;36.92;;
27576;SDS011;15011;53.380;10.034;2022-11-14T06:58:46;77.13;;;39.47;;
27576;SDS011;15011;53.380;10.034;2022-11-14T07:03:48;79.53;;;40.50;;
27576;SDS011;15011;53.380;10.034;2022-11-14T07:08:48;74.60;;;38.10;;
27576;SDS011;15011;53.380;10.034;2022-11-14T07:18:50;86.45;;;40.42;;
27576;SDS011;15011;53.380;10.034;2022-11-14T07:23:50;76.80;;;38.33;;
27576;SDS011;15011;53.380;10.034;2022-11-14T07:28:51;70.25;;;36.40;;
27576;SDS011;15011;53.380;10.034;2022-11-14T07:33:52;70.18;;;35.60;;
27576;SDS011;15011;53.380;10.034;2022-11-14T07:38:52;71.60;;;35.28;;
27576;SDS011;15011;53.380;10.034;2022-11-14T07:43:53;70.43;;;32.47;;
27576;SDS011;15011;53.380;10.034;2022-11-14T07:48:53;64.55;;;32.35;;
27576;SDS011;15011;53.380;10.034;2022-11-14T07:53:54;65.30;;;33.10;;
27576;SDS011;15011;53.380;10.034;2022-11-14T07:58:54;72.93;;;34.77;;
27576;SDS011;15011;53.380;10.034;2022-11-14T08:03:54;71.25;;;34.22;;
27576;SDS011;15011;53.380;10.034;2022-11-14T08:08:55;65.55;;;33.22;;
27576;SDS011;15011;53.380;10.034;2022-11-14T08:13:55;73.95;;;35.42;;
27576;SDS011;15011;53.380;10.034;2022-11-14T08:18:56;79.60;;;36.70;;
27576;SDS011;15011;53.380;10.034;2022-11-14T08:23:56;74.25;;;35.28;;
27576;SDS011;15011;53.380;10.034;2022-11-14T08:28:57;72.82;;;36.20;;
27576;SDS011;15011;53.380;10.034;2022-11-14T08:33:57;70.67;;;34.60;;
27576;SDS011;15011;53.380;10.034;2022-11-14T08:38:57;71.43;;;34.83;;
27576;SDS011;15011;53.380;10.034;2022-11-14T08:43:58;72.60;;;35.65;;
27576;SDS011;15011;53.380;10.034;2022-11-14T08:48:58;72.22;;;35.42;;
27576;SDS011;15011;53.380;10.034;2022-11-14T08:53:59;65.95;;;32.88;;
27576;SDS011;15011;53.380;10.034;2022-11-14T08:59:02;73.50;;;34.67;;
27576;SDS011;15011;53.380;10.034;2022-11-14T09:04:03;67.43;;;35.50;;
27576;SDS011;15011;53.380;10.034;2022-11-14T09:09:03;71.78;;;35.75;;
27576;SDS011;15011;53.380;10.034;2022-11-14T09:14:04;63.83;;;34.63;;
27576;SDS011;15011;53.380;10.034;2022-11-14T09:19:05;70.55;;;35.08;;
27576;SDS011;15011;53.380;10.034;2022-11-14T09:24:05;66.43;;;34.20;;
27576;SDS011;15011;53.380;10.034;2022-11-14T09:29:06;65.90;;;34.13;;
27576;SDS011;15011;53.380;10.034;2022-11-14T09:34:07;65.22;;;33.00;;
27576;SDS011;15011;53.380;10.034;2022-11-14T09:39:08;63.95;;;33.40;;
27576;SDS011;15011;53.380;10.034;2022-11-14T09:44:27;62.08;;;33.50;;
27576;SDS011;15011;53.380;10.034;2022-11-14T09:49:38;60.33;;;31.92;;
27576;SDS011;15011;53.380;10.034;2022-11-14T09:54:47;59.27;;;32.07;;
27576;SDS011;15011;53.380;10.034;2022-11-14T09:59:51;59.90;;;32.40;;
27576;SDS011;15011;53.380;10.034;2022-11-14T10:05:14;54.25;;;30.58;;
27576;SDS011;15011;53.380;10.034;2022-11-14T10:15:48;51.30;;;29.25;;
27576;SDS011;15011;53.380;10.034;2022-11-14T10:20:54;53.67;;;30.70;;
27576;SDS011;15011;53.380;10.034;2022-11-14T10:26:08;52.15;;;28.73;;
27576;SDS011;15011;53.380;10.034;2022-11-14T10:36:40;52.10;;;29.92;;
27576;SDS011;15011;53.380;10.034;2022-11-14T10:41:51;48.67;;;28.83;;
27576;SDS011;15011;53.380;10.034;2022-11-14T10:46:56;47.17;;;27.15;;
27576;SDS011;15011;53.380;10.034;2022-11-14T10:52:01;50.13;;;29.25;;
27576;SDS011;15011;53.380;10.034;2022-11-14T10:57:18;46.95;;;28.33;;
27576;SDS011;15011;53.380;10.034;2022-11-14T11:02:20;49.55;;;30.15;;
27576;SDS011;15011;53.380;10.034;2022-11-14T11:07:23;45.00;;;27.75;;
27576;SDS011;15011;53.380;10.034;2022-11-14T11:12:46;47.97;;;27.80;;
27576;SDS011;15011;53.380;10.034;2022-11-14T11:18:01;41.03;;;25.10;;
27576;SDS011;15011;53.380;10.034;2022-11-14T11:23:16;39.78;;;25.70;;
27576;SDS011;15011;53.380;10.034;2022-11-14T11:28:20;42.33;;;24.80;;
27576;SDS011;15011;53.380;10.034;2022-11-14T11:33:25;40.25;;;24.52;;
27576;SDS011;15011;53.380;10.034;2022-11-14T11:38:27;45.50;;;27.75;;
27576;SDS011;15011;53.380;10.034;2022-11-14T11:43:33;41.45;;;24.80;;
27576;SDS011;15011;53.380;10.034;2022-11-14T11:48:40;41.80;;;26.75;;
27576;SDS011;15011;53.380;10.034;2022-11-14T11:53:45;44.60;;;26.77;;
27576;SDS011;15011;53.380;10.034;2022-11-14T11:58:53;45.20;;;27.90;;
27576;SDS011;15011;53.380;10.034;2022-11-14T12:03:55;40.72;;;25.83;;
27576;SDS011;15011;53.380;10.034;2022-11-14T12:20:28;43.83;;;26.20;;
27576;SDS011;15011;53.380;10.034;2022-11-14T12:25:47;40.85;;;25.83;;
27576;SDS011;15011;53.380;10.034;2022-11-14T12:31:00;37.40;;;22.93;;
27576;SDS011;15011;53.380;10.034;2022-11-14T12:36:07;34.75;;;22.92;;
27576;SDS011;15011;53.380;10.034;2022-11-14T12:41:09;34.03;;;22.70;;
27576;SDS011;15011;53.380;10.034;2022-11-14T12:46:11;31.55;;;21.73;;
27576;SDS011;15011;53.380;10.034;2022-11-14T12:56:54;33.78;;;22.27;;
27576;SDS011;15011;53.380;10.034;2022-11-14T13:07:18;32.92;;;20.58;;
27576;SDS011;15011;53.380;10.034;2022-11-14T13:12:33;29.55;;;20.38;;
27576;SDS011;15011;53.380;10.034;2022-11-14T13:18:01;32.53;;;21.08;;
27576;SDS011;15011;53.380;10.034;2022-11-14T13:39:06;34.38;;;21.15;;
27576;SDS011;15011;53.380;10.034;2022-11-14T13:49:42;34.17;;;20.73;;
27576;SDS011;15011;53.380;10.034;2022-11-14T13:54:58;35.72;;;21.50;;
27576;SDS011;15011;53.380;10.034;2022-11-14T14:15:48;38.03;;;20.87;;
27576;SDS011;15011;53.380;10.034;2022-11-14T14:21:00;37.10;;;21.65;;
27576;SDS011;15011;53.380;10.034;2022-11-14T14:31:15;38.20;;;21.75;;
27576;SDS011;15011;53.380;10.034;2022-11-14T14:36:23;33.85;;;21.00;;
27576;SDS011;15011;53.380;10.034;2022-11-14T14:41:25;33.97;;;21.10;;
27576;SDS011;15011;53.380;10.034;2022-11-14T14:46:31;38.30;;;20.98;;
27576;SDS011;15011;53.380;10.034;2022-11-14T14:51:33;31.60;;;20.48;;
27576;SDS011;15011;53.380;10.034;2022-11-14T14:56:35;38.10;;;21.60;;
27576;SDS011;15011;53.380;10.034;2022-11-14T15:01:35;36.70;;;22.13;;
27576;SDS011;15011;53.380;10.034;2022-11-14T15:06:36;40.08;;;23.35;;
27576;SDS011;15011;53.380;10.034;2022-11-14T15:11:41;42.50;;;23.73;;
27576;SDS011;15011;53.380;10.034;2022-11-14T15:16:43;37.03;;;23.52;;
27576;SDS011;15011;53.380;10.034;2022-11-14T15:21:44;38.92;;;22.63;;
27576;SDS011;15011;53.380;10.034;2022-11-14T15:27:02;42.60;;;23.73;;
27576;SDS011;15011;53.380;10.034;2022-11-14T15:32:03;45.92;;;25.00;;
27576;SDS011;15011;53.380;10.034;2022-11-14T15:47:29;46.60;;;25.52;;
27576;SDS011;15011;53.380;10.034;2022-11-14T15:52:36;46.28;;;26.70;;
27576;SDS011;15011;53.380;10.034;2022-11-14T15:57:38;43.03;;;24.80;;
27576;SDS011;15011;53.380;10.034;2022-11-14T16:02:57;45.85;;;26.98;;
27576;SDS011;15011;53.380;10.034;2022-11-14T16:07:58;49.63;;;27.77;;
27576;SDS011;15011;53.380;10.034;2022-11-14T16:12:58;50.38;;;26.63;;
27576;SDS011;15011;53.380;10.034;2022-11-14T16:17:59;49.35;;;27.02;;
27576;SDS011;15011;53.380;10.034;2022-11-14T16:22:59;46.15;;;26.33;;
27576;SDS011;15011;53.380;10.034;2022-11-14T16:28:00;51.45;;;27.52;;
27576;SDS011;15011;53.380;10.034;2022-11-14T16:33:00;51.38;;;28.45;;
27576;SDS011;15011;53.380;10.034;2022-11-14T16:38:01;47.72;;;26.10;;
27576;SDS011;15011;53.380;10.034;2022-11-14T16:43:01;53.45;;;29.35;;
27576;SDS011;15011;53.380;10.034;2022-11-14T16:48:02;56.67;;;30.38;;
27576;SDS011;15011;53.380;10.034;2022-11-14T16:53:03;50.90;;;28.30;;
27576;SDS011;15011;53.380;10.034;2022-11-14T16:58:03;58.38;;;31.27;;
27576;SDS011;15011;53.380;10.034;2022-11-14T17:03:04;65.78;;;35.10;;
27576;SDS011;15011;53.380;10.034;2022-11-14T17:08:04;64.32;;;34.53;;
27576;SDS011;15011;53.380;10.034;2022-11-14T17:13:05;62.42;;;32.70;;
27576;SDS011;15011;53.380;10.034;2022-11-14T17:18:05;64.43;;;34.33;;
27576;SDS011;15011;53.380;10.034;2022-11-14T17:23:05;60.17;;;33.38;;
27576;SDS011;15011;53.380;10.034;2022-11-14T17:28:06;66.43;;;34.63;;
27576;SDS011;15011;53.380;10.034;2022-11-14T17:33:06;63.80;;;32.95;;
27576;SDS011;15011;53.380;10.034;2022-11-14T17:38:07;57.25;;;31.88;;
27576;SDS011;15011;53.380;10.034;2022-11-14T17:43:07;59.45;;;32.17;;
27576;SDS011;15011;53.380;10.034;2022-11-14T17:48:08;59.78;;;33.35;;
27576;SDS011;15011;53.380;10.034;2022-11-14T17:53:08;60.95;;;33.13;;
27576;SDS011;15011;53.380;10.034;2022-11-14T17:58:09;62.33;;;33.28;;
27576;SDS011;15011;53.380;10.034;2022-11-14T18:03:10;61.97;;;33.30;;
27576;SDS011;15011;53.380;10.034;2022-11-14T18:08:10;71.47;;;34.75;;
27576;SDS011;15011;53.380;10.034;2022-11-14T18:13:11;59.85;;;32.15;;
27576;SDS011;15011;53.380;10.034;2022-11-14T18:18:11;65.78;;;33.92;;
27576;SDS011;15011;53.380;10.034;2022-11-14T18:23:12;69.35;;;35.30;;
27576;SDS011;15011;53.380;10.034;2022-11-14T18:28:12;67.65;;;34.50;;
27576;SDS011;15011;53.380;10.034;2022-11-14T18:33:13;65.50;;;34.20;;
27576;SDS011;15011;53.380;10.034;2022-11-14T18:38:13;65.95;;;35.38;;
27576;SDS011;15011;53.380;10.034;2022-11-14T18:43:14;60.47;;;32.90;;
27576;SDS011;15011;53.380;10.034;2022-11-14T18:48:15;68.40;;;35.28;;
27576;SDS011;15011;53.380;10.034;2022-11-14T18:53:15;66.55;;;35.08;;
27576;SDS011;15011;53.380;10.034;2022-11-14T18:58:16;67.05;;;32.55;;
27576;SDS011;15011;53.380;10.034;2022-11-14T19:03:16;74.63;;;38.67;;
27576;SDS011;15011;53.380;10.034;2022-11-14T19:08:18;69.55;;;35.72;;
27576;SDS011;15011;53.380;10.034;2022-11-14T19:13:22;66.88;;;34.38;;
27576;SDS011;15011;53.380;10.034;2022-11-14T19:18:23;60.65;;;31.38;;
27576;SDS011;15011;53.380;10.034;2022-11-14T19:23:24;71.10;;;35.07;;
27576;SDS011;15011;53.380;10.034;2022-11-14T19:28:25;71.93;;;35.88;;
27576;SDS011;15011;53.380;10.034;2022-11-14T19:33:26;82.13;;;37.50;;
27576;SDS011;15011;53.380;10.034;2022-11-14T19:38:27;73.07;;;34.58;;
27576;SDS011;15011;53.380;10.034;2022-11-14T19:43:27;69.57;;;33.10;;
27576;SDS011;15011;53.380;10.034;2022-11-14T19:48:28;69.28;;;34.80;;
27576;SDS011;15011;53.380;10.034;2022-11-14T19:53:29;63.33;;;33.53;;
27576;SDS011;15011;53.380;10.034;2022-11-14T19:58:30;68.40;;;33.70;;
27576;SDS011;15011;53.380;10.034;2022-11-14T20:03:31;70.05;;;33.58;;
27576;SDS011;15011;53.380;10.034;2022-11-14T20:08:31;61.15;;;32.05;;
27576;SDS011;15011;53.380;10.034;2022-11-14T20:13:33;74.45;;;36.63;;
27576;SDS011;15011;53.380;10.034;2022-11-14T20:18:35;65.63;;;35.72;;
27576;SDS011;15011;53.380;10.034;2022-11-14T20:23:36;58.72;;;31.80;;
27576;SDS011;15011;53.380;10.034;2022-11-14T20:28:39;107.72;;;43.53;;
27576;SDS011;15011;53.380;10.034;2022-11-14T20:33:42;85.40;;;42.38;;
27576;SDS011;15011;53.380;10.034;2022-11-14T20:38:44;80.32;;;39.70;;
27576;SDS011;15011;53.380;10.034;2022-11-14T20:43:44;80.43;;;38.80;;
27576;SDS011;15011;53.380;10.034;2022-11-14T20:48:45;79.00;;;39.00;;
27576;SDS011;15011;53.380;10.034;2022-11-14T20:53:47;87.55;;;39.72;;
27576;SDS011;15011;53.380;10.034;2022-11-14T20:58:48;80.97;;;40.72;;
27576;SDS011;15011;53.380;10.034;2022-11-14T21:03:51;77.72;;;37.95;;
27576;SDS011;15011;53.380;10.034;2022-11-14T21:08:52;78.03;;;38.87;;
27576;SDS011;15011;53.380;10.034;2022-11-14T21:13:53;91.63;;;41.55;;
27576;SDS011;15011;53.380;10.034;2022-11-14T21:18:56;77.78;;;37.03;;
27576;SDS011;15011;53.380;10.034;2022-11-14T21:23:57;74.55;;;37.35;;
27576;SDS011;15011;53.380;10.034;2022-11-14T21:29:02;109.90;;;44.10;;
27576;SDS011;15011;53.380;10.034;2022-11-14T21:34:05;98.25;;;44.80;;
27576;SDS011;15011;53.380;10.034;2022-11-14T21:39:07;95.07;;;40.45;;
27576;SDS011;15011;53.380;10.034;2022-11-14T21:44:08;89.35;;;43.03;;
27576;SDS011;15011;53.380;10.034;2022-11-14T21:49:11;81.72;;;39.25;;
27576;SDS011;15011;53.380;10.034;2022-11-14T21:54:11;84.57;;;38.72;;
27576;SDS011;15011;53.380;10.034;2022-11-14T21:59:13;87.40;;;41.75;;
27576;SDS011;15011;53.380;10.034;2022-11-14T22:04:15;76.80;;;36.92;;
27576;SDS011;15011;53.380;10.034;2022-11-14T22:09:16;86.53;;;41.65;;
27576;SDS011;15011;53.380;10.034;2022-11-14T22:14:16;91.53;;;42.47;;
27576;SDS011;15011;53.380;10.034;2022-11-14T22:19:17;81.75;;;38.58;;
27576;SDS011;15011;53.380;10.034;2022-11-14T22:24:17;86.57;;;39.47;;
27576;SDS011;15011;53.380;10.034;2022-11-14T22:29:18;83.40;;;38.58;;
27576;SDS011;15011;53.380;10.034;2022-11-14T22:34:18;88.80;;;41.38;;
27576;SDS011;15011;53.380;10.034;2022-11-14T22:39:19;86.82;;;41.78;;
27576;SDS011;15011;53.380;10.034;2022-11-14T22:44:19;83.07;;;37.67;;
27576;SDS011;15011;53.380;10.034;2022-11-14T22:49:20;98.38;;;43.20;;
27576;SDS011;15011;53.380;10.034;2022-11-14T22:54:20;110.72;;;44.05;;
27576;SDS011;15011;53.380;10.034;2022-11-14T22:59:20;86.87;;;41.77;;
27576;SDS011;15011;53.380;10.034;2022-11-14T23:04:21;92.40;;;40.85;;
27576;SDS011;15011;53.380;10.034;2022-11-14T23:09:21;93.35;;;42.47;;
27576;SDS011;15011;53.380;10.034;2022-11-14T23:14:22;78.07;;;38.88;;
27576;SDS011;15011;53.380;10.034;2022-11-14T23:19:22;105.25;;;42.08;;
27576;SDS011;15011;53.380;10.034;2022-11-14T23:24:23;87.28;;;39.83;;
27576;SDS011;15011;53.380;10.034;2022-11-14T23:29:23;76.65;;;37.35;;
27576;SDS011;15011;53.380;10.034;2022-11-14T23:34:24;73.03;;;38.60;;
27576;SDS011;15011;53.380;10.034;2022-11-14T23:39:24;87.18;;;40.88;;
27576;SDS011;15011;53.380;10.034;2022-11-14T23:44:24;117.03;;;47.65;;
27576;SDS011;15011;53.380;10.034;2022-11-14T23:49:25;78.25;;;38.92;;
27576;SDS011;15011;53.380;10.034;2022-11-14T23:54:25;80.00;;;38.53;;
27576;SDS011;15011;53.380;10.034;2022-11-14T23:59:26;74.68;;;36.80;;
